Akron, New York
Current Conditions -  °F | °C
As of 8:54 PM on Sunday 25 Jan 2015 (Local Time) from KBUF Reporting Station
Broken Clouds Broken Clouds  
Wind Chill:   Ceiling: 20000
Heat Index: 13°   Visibility: 10mi
Dew Point:   Wind: 6mph
Humidity: 67%   Direction: 50°NE
Pressure: 30.01"   Gusts: NA
Location:  43.02°N, 78.5°W
Report Text: KBUF 260154Z 05005KT 10SM FEW100 SCT160 BKN200 M11/M16 A3001 RMK AO2 SLP177 T11061156
Loading
Personal Weather Stations






























Interactive Weather Map New forecast layout! Learn more

10-Day Weather Forecast

Advertisements
Track Severe Weather on mobile